Aviation Digital Data Service (ADDS)

Output produced by METARs form (1920 UTC 18 June 2019)
found at http://www.aviationweather.gov/metar/data/
 
KBDG 181915Z AUTO 04005KT 10SM 21/06 A3021 RMK AO1 T02130061
KBMC 181855Z AUTO 19008KT 10SM CLR 24/07 A3010 RMK AO1 T02380068
KBCE 181853Z AUTO VRB04KT 10SM FEW070 SCT095 21/05 A3027 RMK AO2 LTG DSNT ALQDS SLP146 T02060050
KBCE 181728Z 1818/1918 30011KT P6SM VCTS SCT060CB SCT120 
     TEMPO 1820/1822 VRB10G20KT -TSRA BKN060CB 
     FM190000 32010KT P6SM SCT080 BKN150 
     FM190300 29006KT P6SM SCT200
       
KCDC 181853Z AUTO 29004KT 10SM CLR 24/06 A3015 RMK AO2 SLP146 T02440061
KCDC 181728Z 1818/1918 VRB04KT P6SM BKN110 
     FM181900 35008KT P6SM VCSH SCT070 SCT100 
     FM190400 14005KT P6SM FEW080 SCT200
       
KDTA 181855Z AUTO 28004KT 10SM CLR 25/04 A3012 RMK AO1
KKNB 181855Z AUTO 20007KT 7SM CLR 28/05 A3014 RMK A01
KLGU 181851Z AUTO 10SM CLR 24/09 A3008 RMK AO2 SLP141 T02390089
KLGU 181728Z 1818/1918 VRB04KT P6SM FEW090 SCT200 
     FM181900 28007KT P6SM FEW090 SCT200 
     FM190200 VRB04KT P6SM SCT200
       
K41U 181855Z AUTO 00000KT 10SM CLR 23/09 A3016 RMK AO1 T02340086
KMLF 181852Z AUTO 31008KT 10SM CLR 27/04 A3012 RMK AO2 SLP143 T02720044 $
KCNY 181853Z AUTO 10SM CLR 26/08 A3006 RMK AO2 SLP133 T02560078
KCNY 181741Z 1818/1918 17006KT P6SM FEW080 SCT150 
     FM182000 28012G20KT P6SM VCTS SCT070CB BKN120 
     FM190200 36013KT P6SM FEW090 SCT180 
     FM190800 VRB04KT P6SM SKC
       
KOGD 181853Z VRB05KT 10SM CLR 24/06 A3009 RMK AO2 SLP142 T02390056
KOGD 181728Z 1818/1918 28006KT P6SM FEW090 SCT200 
     FM190300 17006KT P6SM SCT200
       
KPVU 181856Z 25004KT 10SM SCT070 22/09 A3013 RMK AO2 SLP158 T02220094
KPVU 181728Z 1818/1918 26006KT P6SM FEW090 SCT200 
     FM182100 30010KT P6SM SCT090 SCT200 
     FM190400 VRB05KT P6SM SCT200
       
K74V 181915Z AUTO 09005KT 10SM CLR 25/06 A3010 RMK AO2 LTG DSNT N E AND S
KSLC 181854Z 34006KT 10SM FEW085TCU FEW120 SCT250 27/08 A3008 RMK AO2 SLP137 TCU S AND DSNT SE AND NW T02670078 $
KSLC 181728Z 1818/1924 33008KT P6SM FEW080 SCT200 
     FM190400 15007KT P6SM SCT200 
     FM191800 33009KT P6SM FEW080 SCT200
       
KU42 181915Z AUTO 00000KT 10SM CLR 24/11 A3011 RMK AO1 T02440106
KSGU 181856Z AUTO 32005KT 10SM CLR 30/07 A2999 RMK AO2 SLP119 T03000072
KSGU 181728Z 1818/1918 VRB05KT P6SM SCT120 SCT200 
     FM182000 28008KT P6SM SCT100 SCT150 
     FM190300 VRB05KT P6SM SCT200
       
KTVY 181915Z AUTO 06003KT 10SM CLR 25/09 A3010 RMK AO2
KVEL 181853Z AUTO 35013G18KT 10SM SCT050 BKN080 BKN110 20/10 A3012 RMK AO2 LTG DSNT W SLP145 T02000100
KVEL 181741Z 1818/1918 14006KT P6SM FEW070 SCT150 
     FM182000 31012G18KT P6SM VCTS SCT070CB BKN120 
     FM190200 28007KT P6SM FEW070 SCT120 
     FM190800 VRB04KT P6SM SKC
       
KENV 181856Z AUTO 12006KT 10SM CLR 25/08 A3010 RMK AO2 SLP158 T02500083
KENV 181728Z 1818/1918 12008KT P6SM FEW080 SCT200 
     FM190000 32010KT P6SM SCT200 
     FM190400 33007KT P6SM SKC 
     FM191500 10007KT P6SM SCT200